Time;durP1;ratioP1;P1;durP2;ratioP2;P2;SDS_P1;SDS_P2;PMS_P1;PMS_P2;Temp;Humidity;BMP_temperature;BMP_pressure;BME280_temperature;BME280_humidity;BME280_pressure;Samples;Min_cycle;Max_cycle;Signal;HPM_P1;HPM_P2
2022/03/20 00:00:38;;;;;;;4.80;0.95;;;30.90;88.40;;;;;;5053173;28;20040;-76
2022/03/20 00:03:12;;;;;;;3.22;1.00;;;31.10;88.60;;;;;;5055140;28;20033;-71
2022/03/20 00:05:42;;;;;;;3.78;0.63;;;31.40;87.90;;;;;;5050469;28;20519;-73
2022/03/20 00:08:11;;;;;;;3.20;0.45;;;31.20;87.20;;;;;;5053892;28;20037;-74
2022/03/20 00:10:44;;;;;;;2.83;0.60;;;30.90;85.20;;;;;;5050870;28;20055;-72
2022/03/20 00:13:12;;;;;;;4.40;0.75;;;30.90;85.00;;;;;;5050398;28;20091;-73
2022/03/20 00:15:44;;;;;;;3.00;0.77;;;30.90;85.60;;;;;;5052037;28;20113;-74
2022/03/20 00:18:13;;;;;;;2.40;0.55;;;31.10;83.10;;;;;;5051864;28;20024;-71
2022/03/20 00:20:48;;;;;;;3.60;0.70;;;30.80;84.90;;;;;;5054396;28;20146;-73
2022/03/20 00:23:16;;;;;;;2.53;1.10;;;31.00;89.90;;;;;;5053098;28;20059;-72
2022/03/20 00:25:45;;;;;;;2.45;0.40;;;31.20;86.90;;;;;;5052656;28;20037;-72
2022/03/20 00:28:15;;;;;;;10.57;1.83;;;31.40;85.20;;;;;;5052865;28;20040;-72
2022/03/20 00:30:44;;;;;;;1.98;0.65;;;31.50;83.10;;;;;;5054901;28;20047;-72
2022/03/20 00:33:12;;;;;;;3.90;0.40;;;31.70;84.80;;;;;;5055031;28;20063;-75
2022/03/20 00:35:39;;;;;;;5.30;0.50;;;31.30;83.50;;;;;;5055709;28;20063;-74
2022/03/20 00:38:08;;;;;;;4.00;0.65;;;31.60;82.70;;;;;;5062006;28;20116;-75
2022/03/20 00:40:36;;;;;;;4.13;1.13;;;31.60;83.20;;;;;;5061248;28;20453;-76
2022/03/20 00:43:05;;;;;;;2.60;0.50;;;31.70;83.40;;;;;;5052539;28;20537;-75
2022/03/20 00:45:33;;;;;;;3.20;0.68;;;31.70;80.70;;;;;;5051500;28;21049;-73
2022/03/20 00:48:00;;;;;;;5.57;0.77;;;31.70;81.60;;;;;;5051964;28;20085;-74
2022/03/20 00:50:28;;;;;;;4.03;0.60;;;31.90;84.40;;;;;;5054983;28;20085;-76
2022/03/20 00:52:56;;;;;;;4.63;0.52;;;32.10;82.10;;;;;;5058780;28;20441;-75
2022/03/20 00:55:24;;;;;;;4.22;0.98;;;32.10;82.80;;;;;;5066340;28;20056;-75
2022/03/20 00:57:51;;;;;;;5.18;1.42;;;32.30;81.50;;;;;;5065489;28;20466;-74
2022/03/20 01:00:19;;;;;;;3.65;0.50;;;32.60;82.20;;;;;;5058874;28;20044;-75
2022/03/20 01:02:47;;;;;;;6.43;0.82;;;32.40;78.90;;;;;;5052872;28;20032;-75
2022/03/20 01:05:15;;;;;;;5.90;0.68;;;32.20;81.20;;;;;;5055667;28;20036;-76
2022/03/20 01:07:46;;;;;;;2.45;0.52;;;32.10;82.20;;;;;;5055272;28;20028;-74
2022/03/20 01:10:14;;;;;;;3.92;0.50;;;31.80;82.90;;;;;;5052676;28;20042;-74
2022/03/20 01:12:41;;;;;;;2.53;0.70;;;31.70;82.70;;;;;;5053106;28;20381;-75
2022/03/20 01:15:12;;;;;;;2.70;0.52;;;31.70;83.50;;;;;;5049586;28;20414;-74
2022/03/20 01:17:39;;;;;;;6.38;0.60;;;32.00;81.70;;;;;;5049923;28;20111;-75
2022/03/20 01:20:09;;;;;;;2.30;0.60;;;32.20;81.70;;;;;;5052328;28;20031;-74
2022/03/20 01:22:37;;;;;;;2.67;0.85;;;32.30;79.60;;;;;;5053797;28;20037;-76
2022/03/20 01:25:06;;;;;;;3.53;0.77;;;32.40;83.20;;;;;;5054760;28;20082;-73
2022/03/20 01:34:19;;;;;;;2.47;0.40;;;32.50;81.90;;;;;;5024607;28;20501;-74
2022/03/20 01:36:46;;;;;;;1.85;0.40;;;32.60;84.40;;;;;;5049057;28;20145;-73
2022/03/20 01:39:15;;;;;;;2.00;0.70;;;32.40;80.20;;;;;;5051811;28;20479;-73
2022/03/20 01:41:46;;;;;;;3.90;0.68;;;32.30;82.20;;;;;;5049899;28;20040;-73
2022/03/20 01:44:14;;;;;;;4.35;1.05;;;32.50;82.30;;;;;;5051594;28;20098;-75
2022/03/20 01:46:41;;;;;;;2.40;0.60;;;32.40;80.50;;;;;;5049944;28;20166;-73
2022/03/20 01:49:09;;;;;;;5.05;0.90;;;32.20;79.20;;;;;;5066398;28;20070;-73
2022/03/20 01:54:22;;;;;;;3.78;1.50;;;32.10;80.00;;;;;;5058969;28;20036;-74
2022/03/20 01:56:49;;;;;;;4.53;0.60;;;32.20;82.60;;;;;;5057342;28;20046;-74
2022/03/20 01:59:18;;;;;;;4.18;0.95;;;32.20;79.60;;;;;;5057212;28;20029;-73
2022/03/20 02:01:46;;;;;;;2.05;0.70;;;32.10;79.40;;;;;;5066664;28;20356;-74
2022/03/20 02:04:16;;;;;;;4.10;0.40;;;32.10;79.50;;;;;;5065226;28;20116;-74
2022/03/20 02:06:45;;;;;;;3.03;0.60;;;31.60;78.20;;;;;;5059449;28;20498;-75
2022/03/20 02:09:13;;;;;;;2.10;0.50;;;31.10;79.90;;;;;;5067130;28;20036;-73
2022/03/20 02:11:47;;;;;;;1.77;0.30;;;30.80;78.40;;;;;;5067474;28;20033;-73
2022/03/20 02:14:15;;;;;;;3.25;0.70;;;31.10;81.70;;;;;;5064914;28;20044;-73
2022/03/20 02:16:43;;;;;;;2.60;0.88;;;31.20;80.40;;;;;;5062669;28;20039;-73
2022/03/20 02:19:14;;;;;;;5.40;1.25;;;31.30;81.60;;;;;;5063061;28;20040;-73
2022/03/20 02:21:49;;;;;;;2.35;0.70;;;31.60;81.90;;;;;;5070123;28;20039;-73
2022/03/20 02:24:34;;;;;;;2.72;0.50;;;31.80;83.70;;;;;;5071459;28;20031;-73
2022/03/20 02:27:17;;;;;;;2.70;0.40;;;32.20;82.00;;;;;;5066658;28;20391;-74
2022/03/20 02:29:58;;;;;;;3.58;0.73;;;32.60;80.90;;;;;;5065802;28;20470;-73
2022/03/20 02:32:27;;;;;;;2.63;0.57;;;32.80;80.90;;;;;;5068446;28;20033;-73
2022/03/20 02:35:01;;;;;;;3.38;0.55;;;32.80;81.30;;;;;;5065956;28;20029;-74
2022/03/20 02:37:29;;;;;;;3.92;0.88;;;33.00;80.50;;;;;;5070302;28;20040;-73
2022/03/20 02:39:58;;;;;;;2.45;1.38;;;32.90;78.50;;;;;;5069748;28;20021;-72
2022/03/20 02:42:30;;;;;;;3.33;1.08;;;32.50;83.10;;;;;;5064546;28;20206;-73
2022/03/20 02:45:05;;;;;;;4.57;0.50;;;32.50;79.90;;;;;;5067735;28;20040;-73
2022/03/20 02:47:34;;;;;;;1.98;0.43;;;32.60;80.70;;;;;;5068817;28;20062;-73
2022/03/20 02:50:19;;;;;;;5.07;0.55;;;32.60;78.80;;;;;;5065552;28;20042;-72
2022/03/20 02:52:59;;;;;;;3.47;0.70;;;32.50;79.00;;;;;;5063991;28;20035;-74
2022/03/20 02:55:32;;;;;;;3.20;0.50;;;32.30;79.90;;;;;;5063708;28;20059;-73
2022/03/20 02:58:03;;;;;;;2.92;0.70;;;32.30;79.70;;;;;;5072057;28;20111;-72
2022/03/20 03:00:32;;;;;;;3.50;0.80;;;32.40;79.00;;;;;;5066828;28;20052;-73
2022/03/20 03:03:04;;;;;;;3.78;0.60;;;32.60;82.70;;;;;;5062919;28;20487;-72
2022/03/20 03:05:33;;;;;;;1.67;0.90;;;32.50;78.50;;;;;;5061435;28;20074;-74
2022/03/20 03:11:00;;;;;;;2.13;0.38;;;32.80;78.50;;;;;;5066685;28;20067;-74
2022/03/20 03:13:34;;;;;;;3.20;0.77;;;32.70;76.50;;;;;;5069247;28;20043;-75
2022/03/20 03:16:04;;;;;;;2.88;0.60;;;32.40;77.60;;;;;;5065857;28;20119;-73
2022/03/20 03:18:31;;;;;;;2.55;0.95;;;32.20;79.10;;;;;;5065989;28;20036;-74
2022/03/20 03:21:02;;;;;;;2.65;0.95;;;32.00;79.40;;;;;;5065672;28;20056;-73
2022/03/20 03:23:29;;;;;;;4.60;0.70;;;32.20;78.20;;;;;;5071104;28;20036;-73
2022/03/20 03:25:57;;;;;;;2.65;0.70;;;32.30;80.10;;;;;;5062103;28;20033;-73
2022/03/20 03:28:32;;;;;;;2.20;0.90;;;32.40;77.90;;;;;;5060833;28;20425;-74
2022/03/20 03:30:59;;;;;;;4.45;0.85;;;32.50;78.50;;;;;;5069191;28;20107;-73
2022/03/20 03:33:27;;;;;;;2.67;0.40;;;32.10;80.90;;;;;;5062597;28;20040;-74
2022/03/20 03:35:54;;;;;;;2.55;0.47;;;32.50;82.10;;;;;;5060445;28;20029;-73
2022/03/20 03:38:24;;;;;;;3.63;0.68;;;32.80;79.90;;;;;;5063813;28;20032;-75
2022/03/20 03:40:52;;;;;;;2.63;0.45;;;32.80;78.60;;;;;;5060052;28;20052;-73
2022/03/20 03:43:20;;;;;;;1.65;0.82;;;32.50;77.80;;;;;;5062344;28;20067;-74
2022/03/20 03:45:48;;;;;;;2.40;0.40;;;32.60;80.50;;;;;;5056139;28;20052;-73
2022/03/20 03:48:16;;;;;;;4.20;0.50;;;32.60;80.40;;;;;;5063635;28;20033;-72
2022/03/20 03:50:47;;;;;;;8.15;0.75;;;32.50;81.50;;;;;;5062589;28;20545;-75
2022/03/20 03:53:15;;;;;;;3.90;0.55;;;32.80;80.50;;;;;;5068560;28;20067;-72
2022/03/20 03:55:43;;;;;;;4.57;0.95;;;32.80;80.10;;;;;;5062169;28;20056;-73
2022/03/20 03:58:15;;;;;;;2.63;0.70;;;32.70;80.60;;;;;;5071077;28;20029;-73
2022/03/20 04:00:43;;;;;;;3.28;0.70;;;32.90;81.50;;;;;;5068302;28;20124;-74
2022/03/20 04:03:11;;;;;;;5.32;0.50;;;33.10;81.00;;;;;;5068695;28;20025;-73
2022/03/20 04:05:38;;;;;;;3.75;0.47;;;33.10;77.30;;;;;;5054922;28;20039;-74
2022/03/20 04:08:09;;;;;;;2.03;0.60;;;32.80;81.30;;;;;;5071213;28;20082;-73
2022/03/20 04:10:36;;;;;;;3.42;0.70;;;32.80;78.80;;;;;;5066465;28;20095;-74
2022/03/20 04:13:05;;;;;;;1.75;0.45;;;32.50;79.50;;;;;;5069171;28;20029;-74
2022/03/20 04:15:32;;;;;;;2.97;0.60;;;32.50;79.10;;;;;;5059576;28;20040;-74
2022/03/20 04:18:01;;;;;;;4.18;0.70;;;32.50;79.00;;;;;;5063164;28;20020;-75
2022/03/20 04:20:29;;;;;;;3.40;0.93;;;32.10;78.40;;;;;;5056435;28;20046;-74
2022/03/20 04:25:42;;;;;;;5.10;0.65;;;32.10;79.30;;;;;;5061774;28;20590;-74
2022/03/20 04:28:09;;;;;;;2.72;0.90;;;32.30;81.20;;;;;;5068373;28;20059;-75
2022/03/20 04:30:37;;;;;;;2.33;0.40;;;32.40;82.40;;;;;;5061965;28;20147;-73
2022/03/20 04:33:04;;;;;;;3.92;0.55;;;32.50;79.90;;;;;;5064220;28;20225;-74
2022/03/20 04:35:32;;;;;;;2.35;0.52;;;32.40;79.50;;;;;;5053511;28;20025;-74
2022/03/20 04:38:01;;;;;;;2.22;0.65;;;32.30;80.70;;;;;;5065871;28;20608;-76
2022/03/20 04:40:28;;;;;;;1.63;0.30;;;32.10;80.00;;;;;;5059859;28;20397;-76
2022/03/20 04:42:55;;;;;;;2.28;0.50;;;32.10;80.40;;;;;;5054680;28;20036;-75
2022/03/20 04:45:24;;;;;;;3.90;0.93;;;32.10;78.60;;;;;;5054316;28;20025;-75
2022/03/20 04:59:05;;;;;;;;;;;31.90;81.20;;;;;;5082914;28;20032;-74
2022/03/20 05:01:33;;;;;;;4.75;0.80;;;31.90;78.60;;;;;;5075003;28;19980;-73
2022/03/20 05:04:00;;;;;;;2.83;0.65;;;31.90;79.20;;;;;;5071746;28;20035;-73
2022/03/20 05:06:27;;;;;;;4.45;0.90;;;31.90;79.50;;;;;;5067016;28;20036;-74
2022/03/20 05:13:19;;;;;;;2.75;0.93;;;31.90;80.00;;;;;;5067479;28;20020;-74
2022/03/20 05:14:27;;;;;;;1.45;0.52;;;31.70;80.70;;;;;;5060651;28;20034;-74
2022/03/20 05:16:54;;;;;;;3.80;1.02;;;31.60;80.60;;;;;;5065649;28;20170;-72
2022/03/20 05:19:22;;;;;;;5.85;1.02;;;31.30;79.20;;;;;;5066888;28;20036;-74
2022/03/20 05:21:50;;;;;;;2.75;0.90;;;31.20;79.60;;;;;;5059629;28;20174;-74
2022/03/20 05:24:17;;;;;;;2.97;0.63;;;31.00;82.00;;;;;;5058398;28;20079;-74
2022/03/20 05:26:44;;;;;;;2.30;0.60;;;30.90;79.50;;;;;;5061319;28;20067;-73
2022/03/20 05:29:12;;;;;;;2.97;1.08;;;30.80;80.00;;;;;;5066478;28;20063;-75
2022/03/20 05:31:39;;;;;;;3.97;0.60;;;30.80;80.90;;;;;;5063670;28;20036;-75
2022/03/20 05:34:07;;;;;;;3.63;0.70;;;30.60;80.40;;;;;;5058250;28;20048;-76
2022/03/20 05:36:35;;;;;;;2.38;0.45;;;30.60;80.70;;;;;;5054785;28;20052;-73
2022/03/20 05:39:03;;;;;;;5.97;0.95;;;30.60;80.10;;;;;;5060104;28;20252;-73
2022/03/20 05:41:51;;;;;;;2.80;1.48;;;30.60;83.10;;;;;;5063206;28;20436;-73
2022/03/20 05:44:20;;;;;;;3.38;0.57;;;30.40;82.10;;;;;;5068483;28;20044;-73
2022/03/20 05:46:49;;;;;;;2.83;0.80;;;30.20;82.80;;;;;;5067672;28;20041;-72
2022/03/20 05:49:20;;;;;;;3.72;0.85;;;30.00;83.00;;;;;;5069508;28;20025;-73
2022/03/20 05:51:49;;;;;;;3.05;0.90;;;30.00;82.90;;;;;;5067831;28;20317;-73
2022/03/20 05:54:17;;;;;;;4.63;0.52;;;29.80;83.30;;;;;;5063919;28;20027;-74
2022/03/20 05:59:30;;;;;;;7.68;1.10;;;29.20;86.00;;;;;;5069264;28;20039;-77
2022/03/20 06:01:58;;;;;;;3.65;0.98;;;29.00;86.50;;;;;;5071722;28;20465;-76
2022/03/20 06:04:28;;;;;;;3.08;0.70;;;28.90;87.10;;;;;;5061990;28;20032;-75
2022/03/20 06:06:57;;;;;;;3.58;0.80;;;28.90;87.40;;;;;;5067606;28;20493;-75
2022/03/20 06:09:24;;;;;;;8.20;1.08;;;28.70;87.80;;;;;;5068651;28;20058;-75
2022/03/20 06:11:52;;;;;;;5.55;0.93;;;28.50;88.20;;;;;;5067745;28;20102;-72
2022/03/20 06:14:19;;;;;;;2.72;0.90;;;28.50;88.60;;;;;;5070596;28;20017;-75
2022/03/20 06:16:48;;;;;;;3.55;0.77;;;28.30;89.10;;;;;;5065801;28;20521;-73
2022/03/20 06:19:17;;;;;;;4.38;0.82;;;28.20;89.70;;;;;;5069228;28;20489;-75
2022/03/20 06:21:48;;;;;;;4.45;1.02;;;28.20;90.00;;;;;;5065728;28;20234;-73
2022/03/20 06:24:15;;;;;;;3.15;0.68;;;28.30;90.00;;;;;;5061507;28;20032;-73
2022/03/20 06:26:44;;;;;;;4.32;0.73;;;28.20;89.70;;;;;;5067603;28;20075;-73
2022/03/20 06:29:11;;;;;;;6.88;1.20;;;28.20;89.80;;;;;;5067249;28;20045;-72
2022/03/20 06:31:38;;;;;;;3.92;0.77;;;28.00;90.10;;;;;;5067830;28;20563;-73
2022/03/20 06:34:06;;;;;;;7.47;1.70;;;28.10;90.80;;;;;;5062993;28;20028;-73
2022/03/20 06:36:33;;;;;;;5.63;0.75;;;28.10;90.70;;;;;;5066254;28;20032;-73
2022/03/20 06:39:02;;;;;;;3.05;0.82;;;28.10;90.70;;;;;;5053292;28;20024;-73
2022/03/20 06:41:29;;;;;;;6.10;0.88;;;28.00;90.80;;;;;;5068273;28;20040;-73
2022/03/20 06:43:57;;;;;;;5.50;0.70;;;28.00;90.70;;;;;;5069968;28;20044;-74
2022/03/20 06:46:27;;;;;;;2.33;0.68;;;28.00;90.90;;;;;;5065865;28;20079;-73
2022/03/20 06:48:55;;;;;;;4.25;0.90;;;27.90;91.00;;;;;;5072654;28;20036;-73
2022/03/20 06:51:22;;;;;;;3.42;1.33;;;27.70;91.20;;;;;;5060538;28;20178;-72
2022/03/20 06:53:50;;;;;;;4.63;1.08;;;27.50;91.50;;;;;;5053156;28;20391;-72
2022/03/20 06:56:17;;;;;;;4.25;0.80;;;27.30;91.80;;;;;;5062729;28;20044;-73
2022/03/20 06:58:45;;;;;;;3.60;0.98;;;27.20;91.90;;;;;;5071596;28;20498;-71
2022/03/20 07:01:12;;;;;;;3.47;0.60;;;27.00;92.00;;;;;;5065684;28;20034;-72
2022/03/20 07:03:39;;;;;;;6.53;1.08;;;26.90;92.40;;;;;;5061299;28;20074;-72
2022/03/20 07:06:07;;;;;;;8.90;1.20;;;26.80;92.50;;;;;;5061546;28;20087;-72
2022/03/20 07:08:34;;;;;;;5.60;1.33;;;26.50;92.80;;;;;;5065056;28;20390;-72
2022/03/20 07:11:02;;;;;;;7.72;1.25;;;26.30;93.20;;;;;;5066034;28;20028;-73
2022/03/20 07:16:16;;;;;;;4.53;0.98;;;26.20;93.30;;;;;;5062957;28;20472;-74
2022/03/20 07:18:45;;;;;;;8.60;1.10;;;26.20;93.30;;;;;;5071936;28;20067;-73
2022/03/20 07:21:19;;;;;;;3.72;1.00;;;26.10;93.50;;;;;;5069019;28;20040;-74
2022/03/20 07:23:46;;;;;;;8.25;1.25;;;26.00;93.80;;;;;;5072230;28;20043;-71
2022/03/20 07:31:44;;;;;;;7.43;1.30;;;25.60;94.20;;;;;;5066980;28;20312;-73
2022/03/20 07:34:11;;;;;;;10.23;1.25;;;25.40;94.70;;;;;;5056736;28;20140;-72
2022/03/20 07:36:39;;;;;;;2.88;1.10;;;25.30;94.80;;;;;;5052999;28;20033;-72
2022/03/20 07:39:06;;;;;;;7.10;1.08;;;25.20;94.90;;;;;;5053026;28;20551;-73
2022/03/20 07:41:33;;;;;;;7.95;1.17;;;25.00;95.00;;;;;;5059216;28;20025;-73
2022/03/20 07:44:01;;;;;;;9.82;1.30;;;24.90;95.30;;;;;;5052167;28;20062;-73
2022/03/20 07:46:29;;;;;;;5.25;1.85;;;24.90;95.90;;;;;;5063386;28;20165;-73
2022/03/20 07:48:58;;;;;;;5.55;1.10;;;24.80;96.00;;;;;;5071057;28;20057;-73
2022/03/20 07:51:26;;;;;;;7.20;1.58;;;24.70;96.20;;;;;;5057104;28;20431;-73
2022/03/20 07:53:53;;;;;;;5.57;1.38;;;24.50;96.40;;;;;;5059917;28;20052;-73
2022/03/20 07:56:23;;;;;;;6.65;1.77;;;24.50;96.70;;;;;;5079007;28;20463;-75
2022/03/20 07:58:51;;;;;;;6.40;1.00;;;24.40;97.00;;;;;;5069600;28;20029;-74
2022/03/20 08:01:19;;;;;;;5.95;1.17;;;24.30;96.90;;;;;;5053168;28;20547;-74
2022/03/20 08:03:46;;;;;;;4.63;1.88;;;24.10;97.00;;;;;;5056794;28;20051;-74
2022/03/20 08:06:15;;;;;;;3.60;0.80;;;24.10;97.00;;;;;;5054491;28;20028;-73
2022/03/20 08:08:43;;;;;;;7.63;1.33;;;24.10;97.10;;;;;;5049740;28;20070;-72
2022/03/20 08:11:10;;;;;;;6.40;1.25;;;24.00;97.10;;;;;;5053183;28;20505;-72
2022/03/20 08:13:38;;;;;;;5.00;1.42;;;24.00;97.30;;;;;;5049910;28;20048;-69
2022/03/20 08:16:05;;;;;;;5.20;1.20;;;24.00;97.20;;;;;;5057817;28;20043;-71
2022/03/20 08:18:33;;;;;;;9.48;1.90;;;24.20;97.20;;;;;;5062380;28;20032;-71
2022/03/20 08:21:00;;;;;;;2.22;0.82;;;24.20;97.10;;;;;;5064613;28;20021;-70
2022/03/20 08:23:28;;;;;;;8.90;1.45;;;24.30;97.00;;;;;;5060397;28;20490;-70
2022/03/20 08:25:55;;;;;;;8.63;1.98;;;24.30;97.10;;;;;;5066652;28;20043;-71
2022/03/20 08:28:23;;;;;;;6.22;1.88;;;24.20;97.30;;;;;;5054292;28;20361;-73
2022/03/20 08:30:50;;;;;;;5.40;1.35;;;24.20;97.40;;;;;;5059129;28;20391;-70
2022/03/20 08:33:17;;;;;;;6.88;2.17;;;24.10;97.60;;;;;;5066530;28;20024;-71
2022/03/20 08:35:47;;;;;;;10.27;1.63;;;24.00;97.80;;;;;;5059048;28;20119;-71
2022/03/20 08:38:15;;;;;;;7.38;1.45;;;23.90;97.80;;;;;;5065993;28;20018;-70
2022/03/20 08:40:42;;;;;;;7.88;1.17;;;23.80;98.30;;;;;;5061909;28;20032;-72
2022/03/20 08:43:15;;;;;;;4.57;2.15;;;23.70;98.60;;;;;;5056844;28;20403;-74
2022/03/20 08:45:44;;;;;;;3.65;1.20;;;23.40;99.00;;;;;;5061612;28;20111;-72
2022/03/20 08:48:14;;;;;;;8.48;2.03;;;23.40;99.20;;;;;;5052915;28;20131;-72
2022/03/20 08:50:48;;;;;;;6.28;1.10;;;23.30;99.30;;;;;;5051056;28;20037;-73
2022/03/20 08:53:17;;;;;;;3.70;1.10;;;23.30;99.60;;;;;;5053005;28;20509;-73
2022/03/20 08:55:47;;;;;;;9.15;1.30;;;23.20;99.50;;;;;;5058118;28;20174;-72
2022/03/20 08:58:15;;;;;;;5.22;2.40;;;23.30;99.80;;;;;;5058018;28;20043;-74
2022/03/20 09:00:43;;;;;;;2.63;1.63;;;23.20;99.70;;;;;;5050328;28;20023;-73
2022/03/20 09:03:13;;;;;;;5.50;2.13;;;23.30;99.60;;;;;;5051716;28;20039;-73
2022/03/20 09:05:42;;;;;;;9.80;2.30;;;23.40;99.40;;;;;;5053290;28;20417;-74
2022/03/20 09:08:10;;;;;;;4.15;2.10;;;23.50;99.30;;;;;;5058082;28;20329;-74
2022/03/20 09:10:38;;;;;;;7.57;2.13;;;23.50;99.30;;;;;;5056626;28;20058;-72
2022/03/20 09:13:05;;;;;;;7.70;2.35;;;23.30;99.60;;;;;;5065411;28;20029;-72
2022/03/20 09:15:32;;;;;;;12.10;2.45;;;23.40;99.70;;;;;;5062404;28;20545;-72
2022/03/20 09:20:46;;;;;;;6.68;2.72;;;23.30;99.60;;;;;;5051699;28;20575;-71
2022/03/20 09:23:15;;;;;;;10.50;3.53;;;23.10;99.90;;;;;;5049292;28;20055;-72
2022/03/20 09:25:42;;;;;;;5.47;2.75;;;22.90;99.90;;;;;;5051024;28;20029;-73
2022/03/20 09:28:12;;;;;;;8.73;3.65;;;22.80;99.90;;;;;;5057424;28;20060;-73
2022/03/20 09:30:41;;;;;;;7.47;3.00;;;22.60;99.90;;;;;;5064410;28;20046;-73
2022/03/20 09:33:10;;;;;;;6.15;2.75;;;22.60;99.90;;;;;;5066559;28;20037;-73
2022/03/20 09:35:39;;;;;;;9.85;2.78;;;22.50;99.90;;;;;;5063712;28;20556;-73
2022/03/20 09:38:09;;;;;;;6.90;2.65;;;22.50;99.90;;;;;;5064806;28;20036;-72
2022/03/20 09:40:38;;;;;;;8.55;3.55;;;22.40;99.90;;;;;;5064593;28;20520;-76
2022/03/20 09:43:06;;;;;;;5.57;2.22;;;22.30;99.90;;;;;;5058166;28;20043;-72
2022/03/20 09:45:35;;;;;;;7.53;2.25;;;22.20;99.90;;;;;;5066590;28;20064;-72
2022/03/20 09:48:04;;;;;;;4.63;2.20;;;22.20;99.90;;;;;;5066764;28;20115;-70
2022/03/20 09:50:32;;;;;;;7.18;2.10;;;22.20;99.90;;;;;;5067659;28;20479;-75
2022/03/20 09:52:59;;;;;;;6.03;2.00;;;22.20;99.90;;;;;;5066395;28;20085;-74
2022/03/20 09:55:26;;;;;;;9.50;1.88;;;22.10;99.90;;;;;;5070392;28;20035;-73
2022/03/20 09:58:00;;;;;;;5.03;1.85;;;22.10;99.90;;;;;;5055652;28;20028;-75
2022/03/20 10:00:27;;;;;;;7.80;1.60;;;22.10;99.90;;;;;;5058049;28;20051;-72
2022/03/20 10:02:55;;;;;;;9.40;1.48;;;22.00;99.90;;;;;;5060970;28;20059;-73
2022/03/20 10:05:28;;;;;;;4.32;1.63;;;21.80;99.90;;;;;;5055187;28;20383;-71
2022/03/20 10:08:17;;;;;;;4.25;1.00;;;21.90;99.90;;;;;;5068872;28;20092;-73
2022/03/20 10:10:47;;;;;;;6.05;1.40;;;21.80;99.90;;;;;;5064230;28;20108;-72
2022/03/20 10:13:15;;;;;;;9.82;1.35;;;21.80;99.90;;;;;;5068517;28;20036;-73
2022/03/20 10:15:44;;;;;;;6.32;1.00;;;21.70;99.90;;;;;;5056516;28;20035;-73
2022/03/20 10:18:23;;;;;;;3.33;0.88;;;21.70;99.90;;;;;;5066051;28;20025;-72
2022/03/20 10:20:59;;;;;;;6.13;1.38;;;21.70;99.90;;;;;;5060610;28;20070;-71
2022/03/20 10:23:33;;;;;;;6.32;1.20;;;21.70;99.90;;;;;;5068111;28;20521;-71
2022/03/20 10:26:06;;;;;;;8.27;1.55;;;21.60;99.90;;;;;;5061982;28;20202;-72
2022/03/20 10:28:41;;;;;;;3.92;1.33;;;21.50;99.90;;;;;;5057620;28;20031;-72
2022/03/20 10:31:15;;;;;;;4.65;1.02;;;21.50;99.90;;;;;;5059970;28;20063;-71
2022/03/20 10:33:43;;;;;;;8.15;1.00;;;21.50;99.90;;;;;;5065652;28;20048;-72
2022/03/20 10:36:21;;;;;;;5.60;1.10;;;21.40;99.90;;;;;;5069850;28;20016;-71
2022/03/20 10:38:49;;;;;;;3.13;1.10;;;21.40;99.90;;;;;;5060483;28;20107;-73
2022/03/20 10:41:34;;;;;;;3.88;1.05;;;21.40;99.90;;;;;;5059622;28;20477;-75
2022/03/20 10:44:03;;;;;;;5.80;0.80;;;21.30;99.90;;;;;;5059534;28;20052;-72
2022/03/20 10:46:32;;;;;;;4.47;1.00;;;21.30;99.90;;;;;;5065038;28;20116;-71
2022/03/20 10:49:02;;;;;;;6.05;1.23;;;21.30;99.90;;;;;;5052063;28;20045;-75
2022/03/20 10:51:40;;;;;;;3.50;1.17;;;21.30;99.90;;;;;;5060662;28;20028;-76
2022/03/20 10:54:16;;;;;;;5.63;1.10;;;21.20;99.90;;;;;;5062823;28;20032;-73
2022/03/20 10:57:02;;;;;;;7.40;1.17;;;21.10;99.90;;;;;;5060615;28;20067;-74
2022/03/20 10:59:30;;;;;;;7.47;1.58;;;21.10;99.90;;;;;;5066320;28;20078;-71
2022/03/20 11:02:00;;;;;;;5.45;2.10;;;21.10;99.90;;;;;;5054460;28;20563;-71
2022/03/20 11:04:28;;;;;;;7.00;1.42;;;21.10;99.90;;;;;;5065819;28;20040;-75
2022/03/20 11:07:00;;;;;;;6.40;1.65;;;21.10;99.90;;;;;;5066014;28;20764;-77
2022/03/20 11:09:28;;;;;;;5.70;0.98;;;21.00;99.90;;;;;;5061898;28;20504;-76
2022/03/20 11:12:03;;;;;;;8.98;1.10;;;21.00;99.90;;;;;;5061651;28;20037;-75
2022/03/20 11:14:33;;;;;;;4.85;1.95;;;21.00;99.90;;;;;;5068619;28;20029;-75
2022/03/20 11:17:06;;;;;;;4.63;1.33;;;21.00;99.90;;;;;;5068853;28;20102;-75
2022/03/20 11:19:35;;;;;;;4.85;1.38;;;21.00;99.90;;;;;;5065704;28;20041;-74
2022/03/20 11:22:11;;;;;;;7.93;1.10;;;20.90;99.90;;;;;;5060331;28;20037;-76
2022/03/20 11:24:40;;;;;;;8.68;1.50;;;20.90;99.90;;;;;;5065688;28;20039;-75
2022/03/20 11:27:11;;;;;;;5.05;1.77;;;20.80;99.90;;;;;;5066070;28;20441;-75
2022/03/20 11:29:47;;;;;;;8.13;1.73;;;20.80;99.90;;;;;;5070306;28;20048;-73
2022/03/20 11:32:16;;;;;;;5.47;1.17;;;20.80;99.90;;;;;;5070831;28;20033;-71
2022/03/20 11:34:46;;;;;;;6.25;1.40;;;20.70;99.90;;;;;;5067292;28;20120;-75
2022/03/20 11:37:15;;;;;;;5.93;1.20;;;20.70;99.90;;;;;;5060861;28;20039;-74
2022/03/20 11:40:08;;;;;;;6.20;1.60;;;20.70;99.90;;;;;;5065573;28;20048;-73
2022/03/20 11:42:36;;;;;;;6.35;1.65;;;20.70;99.90;;;;;;5057117;28;20025;-79
2022/03/20 11:45:04;;;;;;;5.47;1.88;;;20.70;99.90;;;;;;5059854;28;20037;-80
2022/03/20 11:47:39;;;;;;;8.63;1.33;;;20.60;99.90;;;;;;5068568;28;20033;-74
2022/03/20 11:50:27;;;;;;;4.82;1.63;;;20.50;99.90;;;;;;5059998;28;20107;-84
2022/03/20 11:52:55;;;;;;;6.18;1.10;;;20.40;99.90;;;;;;5061434;28;20043;-78
2022/03/20 11:55:53;;;;;;;5.03;1.30;;;20.30;99.90;;;;;;5063621;28;20025;-76
2022/03/20 11:58:26;;;;;;;7.32;1.65;;;20.30;99.90;;;;;;5052779;28;20153;-76
2022/03/20 12:01:07;;;;;;;8.05;1.85;;;20.20;99.90;;;;;;5067615;28;20032;-76
2022/03/20 12:03:55;;;;;;;4.97;1.52;;;20.00;99.90;;;;;;5058883;28;20028;-81
2022/03/20 12:06:54;;;;;;;5.70;1.67;;;20.00;99.90;;;;;;5068230;28;20097;-76
2022/03/20 12:09:24;;;;;;;7.50;2.30;;;20.00;99.90;;;;;;5056833;28;20048;-77
2022/03/20 12:12:07;;;;;;;9.75;2.95;;;19.90;99.90;;;;;;5067021;28;20636;-77
2022/03/20 12:14:43;;;;;;;4.13;1.55;;;19.80;99.90;;;;;;5070120;28;20020;-79
2022/03/20 12:17:10;;;;;;;6.85;1.65;;;19.80;99.90;;;;;;5070492;28;20028;-76
2022/03/20 12:19:43;;;;;;;5.15;2.63;;;19.80;99.90;;;;;;5070142;28;20047;-77
2022/03/20 12:22:16;;;;;;;8.73;2.25;;;19.70;99.90;;;;;;5066806;28;20024;-77
2022/03/20 12:25:08;;;;;;;4.65;2.20;;;19.70;99.90;;;;;;5062514;28;20032;-78
2022/03/20 12:27:39;;;;;;;4.78;1.75;;;19.70;99.90;;;;;;5058020;28;20040;-80
2022/03/20 12:30:07;;;;;;;7.00;2.00;;;19.60;99.90;;;;;;5058198;28;20020;-75
2022/03/20 12:32:55;;;;;;;9.40;2.28;;;19.50;99.90;;;;;;5062132;28;20056;-78
2022/03/20 12:35:27;;;;;;;3.42;1.40;;;19.40;99.90;;;;;;5051671;28;20097;-80
2022/03/20 12:37:56;;;;;;;4.38;2.03;;;19.40;99.90;;;;;;5054135;28;20024;-78
2022/03/20 12:40:30;;;;;;;6.80;1.90;;;19.40;99.90;;;;;;5065107;28;20028;-76
2022/03/20 12:43:10;;;;;;;7.90;1.48;;;19.40;99.90;;;;;;5060281;28;20052;-76
2022/03/20 12:45:43;;;;;;;2.65;1.73;;;19.30;99.90;;;;;;5067603;28;20106;-77
2022/03/20 12:48:13;;;;;;;7.63;2.33;;;19.30;99.90;;;;;;5057819;28;20047;-76
2022/03/20 12:50:43;;;;;;;7.57;1.98;;;19.30;99.90;;;;;;5058159;28;20024;-78
2022/03/20 12:53:16;;;;;;;8.13;2.38;;;19.30;99.90;;;;;;5072973;28;20036;-75
2022/03/20 12:55:47;;;;;;;7.90;2.60;;;19.20;99.90;;;;;;5077598;28;20097;-79
2022/03/20 12:58:18;;;;;;;7.82;2.35;;;19.20;99.90;;;;;;5068253;28;20025;-79
2022/03/20 13:00:46;;;;;;;4.22;2.00;;;19.20;99.90;;;;;;5061528;28;20025;-76
2022/03/20 13:03:18;;;;;;;7.50;2.28;;;19.20;99.90;;;;;;5060722;28;20036;-75
2022/03/20 13:06:00;;;;;;;7.75;3.85;;;19.20;99.90;;;;;;5057931;28;20033;-76
2022/03/20 13:08:33;;;;;;;10.68;2.92;;;19.20;99.90;;;;;;5049436;28;20624;-74
2022/03/20 13:11:05;;;;;;;6.60;2.95;;;19.20;99.90;;;;;;5056015;28;20102;-73
2022/03/20 13:13:34;;;;;;;7.63;2.10;;;19.20;99.90;;;;;;5062327;28;20033;-73
2022/03/20 13:16:14;;;;;;;6.07;2.33;;;19.20;99.90;;;;;;5057364;28;20643;-77
2022/03/20 13:18:42;;;;;;;11.85;3.42;;;19.10;99.90;;;;;;5056722;28;20043;-77
2022/03/20 13:21:10;;;;;;;8.45;2.53;;;19.10;99.90;;;;;;5062494;28;20032;-76
2022/03/20 13:23:37;;;;;;;5.45;2.50;;;19.10;99.90;;;;;;5049905;28;20033;-73
2022/03/20 13:26:04;;;;;;;5.53;2.28;;;19.10;99.90;;;;;;5056086;28;20482;-73
2022/03/20 13:28:33;;;;;;;7.60;2.13;;;19.10;99.90;;;;;;5060866;28;20037;-77
2022/03/20 13:31:13;;;;;;;4.32;1.83;;;19.00;99.90;;;;;;5059022;28;20060;-76
2022/03/20 13:33:54;;;;;;;7.05;1.90;;;19.00;99.90;;;;;;5060044;28;20025;-73
2022/03/20 13:36:26;;;;;;;7.88;2.42;;;19.00;99.90;;;;;;5061917;28;20033;-77
2022/03/20 13:38:55;;;;;;;8.20;2.60;;;19.00;99.90;;;;;;5060288;28;20348;-78
2022/03/20 13:41:26;;;;;;;5.88;2.40;;;19.00;99.90;;;;;;5065926;28;20036;-75
2022/03/20 13:44:04;;;;;;;5.20;2.08;;;19.00;99.90;;;;;;5069082;28;20052;-75
2022/03/20 13:46:37;;;;;;;5.57;2.28;;;18.90;99.90;;;;;;5060468;28;20032;-74